createdAt,value
2017-12-20T00:00:40.256Z,14.40
2017-12-20T00:03:09.654Z,16.07
2017-12-20T00:05:39.094Z,19.03
2017-12-20T00:08:08.723Z,22.00
2017-12-20T00:10:38.157Z,17.20
2017-12-20T00:13:07.561Z,14.30
2017-12-20T00:15:36.944Z,18.77
2017-12-20T00:18:06.362Z,15.33
2017-12-20T00:20:35.752Z,15.87
2017-12-20T00:23:05.139Z,17.70
2017-12-20T00:25:34.544Z,15.30
2017-12-20T00:28:03.941Z,18.07
2017-12-20T00:30:33.328Z,16.50
2017-12-20T00:33:02.740Z,19.87
2017-12-20T00:35:31.944Z,19.70
2017-12-20T00:38:01.340Z,17.17
2017-12-20T00:40:29.761Z,17.10
2017-12-20T00:42:58.133Z,14.23
2017-12-20T00:45:26.514Z,14.57
2017-12-20T00:47:54.921Z,19.90
2017-12-20T00:50:23.304Z,20.47
2017-12-20T00:52:51.681Z,17.00
2017-12-20T00:55:20.080Z,16.40
2017-12-20T00:57:48.459Z,16.77
2017-12-20T01:00:19.161Z,19.00
2017-12-20T01:02:47.549Z,20.80
2017-12-20T01:05:15.929Z,16.03
2017-12-20T01:07:44.087Z,22.33
2017-12-20T01:10:12.460Z,25.70
2017-12-20T01:12:40.839Z,21.27
2017-12-20T01:15:09.223Z,19.37
2017-12-20T01:17:37.636Z,23.50
2017-12-20T01:20:06.793Z,18.87
2017-12-20T01:22:35.200Z,14.57
2017-12-20T01:25:03.573Z,21.60
2017-12-20T01:27:31.950Z,19.17
2017-12-20T01:30:00.367Z,19.30
2017-12-20T01:32:28.740Z,23.17
2017-12-20T01:34:57.930Z,23.70
2017-12-20T01:37:27.126Z,24.27
2017-12-20T01:39:56.273Z,23.97
2017-12-20T01:42:41.548Z,24.23
2017-12-20T01:45:09.581Z,26.87
2017-12-20T01:47:37.964Z,27.40
2017-12-20T01:50:06.370Z,25.30
2017-12-20T01:52:34.745Z,26.97
2017-12-20T01:55:03.111Z,25.50
2017-12-20T01:57:31.170Z,24.20
2017-12-20T01:59:59.579Z,20.90
2017-12-20T02:02:27.954Z,28.17
2017-12-20T02:04:56.345Z,28.77
2017-12-20T02:07:24.709Z,25.90
2017-12-20T02:09:53.078Z,25.90
2017-12-20T02:12:21.498Z,28.37
2017-12-20T02:14:49.874Z,24.40
2017-12-20T02:17:18.261Z,22.20
2017-12-20T02:19:46.325Z,32.93
2017-12-20T02:22:14.368Z,31.77
2017-12-20T02:24:42.076Z,33.63
2017-12-20T02:27:10.598Z,29.60
2017-12-20T02:29:38.300Z,24.53
2017-12-20T02:32:06.013Z,37.90
2017-12-20T02:34:33.759Z,27.93
2017-12-20T02:37:02.566Z,29.77
2017-12-20T02:39:30.273Z,38.50
2017-12-20T02:41:58.010Z,31.27
2017-12-20T02:44:25.721Z,29.77
2017-12-20T02:46:54.541Z,35.97
2017-12-20T02:49:22.600Z,30.43
2017-12-20T02:51:50.638Z,33.47
2017-12-20T02:54:18.341Z,30.97
2017-12-20T02:56:46.061Z,31.77
2017-12-20T02:59:13.774Z,28.60
2017-12-20T03:01:41.477Z,31.20
2017-12-20T03:04:09.205Z,31.37
2017-12-20T03:06:36.904Z,32.00
2017-12-20T03:09:05.656Z,29.50
2017-12-20T03:11:33.404Z,29.67
2017-12-20T03:14:01.444Z,31.07
2017-12-20T03:16:30.249Z,30.20
2017-12-20T03:18:59.092Z,31.07
2017-12-20T03:21:27.461Z,27.97
2017-12-20T03:23:55.838Z,36.30
2017-12-20T03:26:24.226Z,32.50
2017-12-20T03:28:52.598Z,34.27
2017-12-20T03:31:21.061Z,35.43
2017-12-20T03:33:49.552Z,34.07
2017-12-20T03:36:17.590Z,33.67
2017-12-20T03:38:45.953Z,28.77
2017-12-20T03:41:15.121Z,29.43
2017-12-20T03:43:43.490Z,38.43
2017-12-20T03:46:11.526Z,39.30
2017-12-20T03:48:39.928Z,27.93
2017-12-20T03:51:08.078Z,34.93
2017-12-20T03:53:36.124Z,38.17
2017-12-20T03:56:03.853Z,33.03
2017-12-20T03:58:32.220Z,34.13
2017-12-20T04:01:00.584Z,29.47
2017-12-20T04:03:29.126Z,34.50
2017-12-20T04:05:57.509Z,32.60
2017-12-20T04:08:25.886Z,37.70
2017-12-20T04:10:55.182Z,32.00
2017-12-20T04:13:23.564Z,29.20
2017-12-20T04:15:51.939Z,35.67
2017-12-20T04:18:20.339Z,33.33
2017-12-20T04:20:48.708Z,36.80
2017-12-20T04:23:17.073Z,38.70
2017-12-20T04:25:45.153Z,36.23
2017-12-20T04:28:13.529Z,29.97
2017-12-20T04:30:41.912Z,31.00
2017-12-20T04:33:10.300Z,38.20
2017-12-20T04:35:38.670Z,32.20
2017-12-20T04:38:07.050Z,36.23
2017-12-20T04:40:35.461Z,32.70
2017-12-20T04:43:03.849Z,38.50
2017-12-20T04:45:32.228Z,38.53
2017-12-20T04:48:01.403Z,31.73
2017-12-20T04:50:29.776Z,38.00
2017-12-20T04:52:58.140Z,37.10
2017-12-20T04:55:26.543Z,34.80
2017-12-20T04:57:54.917Z,30.10
2017-12-20T05:00:23.316Z,34.77
2017-12-20T05:02:51.713Z,36.17
2017-12-20T05:05:20.076Z,39.97
2017-12-20T05:07:48.450Z,35.40
2017-12-20T05:10:16.864Z,35.50
2017-12-20T05:12:47.147Z,38.80
2017-12-20T05:15:15.721Z,39.50
2017-12-20T05:17:44.139Z,34.30
2017-12-20T05:20:13.280Z,48.87
2017-12-20T05:22:41.666Z,35.57
2017-12-20T05:25:10.066Z,39.57
2017-12-20T05:27:39.259Z,33.40
2017-12-20T05:30:07.823Z,43.73
2017-12-20T05:32:36.228Z,34.73
2017-12-20T05:35:04.609Z,44.17
2017-12-20T05:37:32.983Z,31.80
2017-12-20T05:40:01.390Z,44.57
2017-12-20T05:42:30.529Z,31.13
2017-12-20T05:44:58.908Z,44.80
2017-12-20T05:47:27.300Z,39.23
2017-12-20T05:49:55.677Z,41.93
2017-12-20T05:52:24.050Z,35.80
2017-12-20T05:54:52.437Z,39.00
2017-12-20T05:57:20.812Z,37.67
2017-12-20T05:59:49.268Z,41.83
2017-12-20T06:02:17.651Z,37.97
2017-12-20T06:04:46.028Z,38.77
2017-12-20T06:07:14.395Z,35.60
2017-12-20T06:09:42.958Z,42.63
2017-12-20T06:12:12.102Z,37.63
2017-12-20T06:14:40.474Z,34.23
2017-12-20T06:17:08.885Z,44.33
2017-12-20T06:19:37.255Z,38.03
2017-12-20T06:22:05.622Z,32.80
2017-12-20T06:24:34.153Z,36.73
2017-12-20T06:27:03.291Z,33.03
2017-12-20T06:29:31.664Z,35.60
2017-12-20T06:32:00.060Z,38.37
2017-12-20T06:34:28.436Z,41.13
2017-12-20T06:36:56.816Z,39.43
2017-12-20T06:39:25.257Z,39.80
2017-12-20T06:41:54.253Z,37.33
2017-12-20T06:44:22.650Z,39.87
2017-12-20T06:46:51.060Z,38.30
2017-12-20T06:49:19.429Z,39.70
2017-12-20T06:51:48.574Z,42.40
2017-12-20T06:54:16.993Z,40.13
2017-12-20T06:56:45.377Z,39.07
2017-12-20T06:59:13.754Z,48.13
2017-12-20T07:01:42.210Z,42.47
2017-12-20T07:04:10.597Z,42.13
2017-12-20T07:06:38.977Z,49.03
2017-12-20T07:09:07.376Z,45.90
2017-12-20T07:11:35.749Z,38.77
2017-12-20T07:14:04.117Z,46.43
2017-12-20T07:16:32.504Z,43.00
2017-12-20T07:19:00.717Z,49.50
2017-12-20T07:21:29.854Z,50.03
2017-12-20T07:23:58.278Z,43.97
2017-12-20T07:26:27.416Z,40.47
2017-12-20T07:28:55.781Z,41.90
2017-12-20T07:31:24.352Z,44.97
2017-12-20T07:33:53.574Z,39.03
2017-12-20T07:36:21.952Z,37.87
2017-12-20T07:38:50.340Z,43.07
2017-12-20T07:41:18.813Z,37.57
2017-12-20T07:43:47.184Z,41.77
2017-12-20T07:46:15.593Z,52.40
2017-12-20T07:48:43.968Z,40.33
2017-12-20T07:51:12.345Z,39.33
2017-12-20T07:53:40.739Z,46.33
2017-12-20T07:56:09.114Z,36.63
2017-12-20T07:58:37.489Z,37.23
2017-12-20T08:01:05.892Z,46.70
2017-12-20T08:03:34.255Z,45.00
2017-12-20T08:06:02.624Z,43.30
2017-12-20T08:08:31.156Z,42.73
2017-12-20T08:10:59.517Z,43.07
2017-12-20T08:13:28.652Z,43.87
2017-12-20T08:15:57.056Z,41.70
2017-12-20T08:18:25.597Z,44.17
2017-12-20T08:20:53.964Z,44.23
2017-12-20T08:23:23.269Z,44.70
2017-12-20T08:25:51.636Z,43.20
2017-12-20T08:28:20.797Z,48.10
2017-12-20T08:30:49.192Z,46.23
2017-12-20T08:33:17.556Z,49.77
2017-12-20T08:35:45.929Z,44.97
2017-12-20T08:38:14.352Z,45.57
2017-12-20T08:40:42.726Z,49.00
2017-12-20T08:43:11.856Z,46.67
2017-12-20T08:45:40.333Z,36.63
2017-12-20T08:48:08.702Z,44.33
2017-12-20T08:50:37.072Z,43.67
2017-12-20T08:53:05.458Z,37.37
2017-12-20T08:55:33.829Z,41.17
2017-12-20T08:58:03.013Z,39.40
2017-12-20T09:00:31.404Z,40.00
2017-12-20T09:02:59.773Z,44.13
2017-12-20T09:05:28.136Z,42.70
2017-12-20T09:07:57.301Z,39.60
2017-12-20T09:10:28.731Z,49.60
2017-12-20T09:12:58.135Z,38.23
2017-12-20T09:15:27.524Z,43.63
2017-12-20T09:17:56.904Z,40.90
2017-12-20T09:20:26.328Z,44.47
2017-12-20T09:22:55.712Z,44.53
2017-12-20T09:25:25.096Z,50.20
2017-12-20T09:27:54.499Z,44.73
2017-12-20T09:30:23.884Z,38.53
2017-12-20T09:32:53.279Z,49.00
2017-12-20T09:35:22.821Z,42.13
2017-12-20T09:37:52.219Z,38.50
2017-12-20T09:40:21.608Z,44.43
2017-12-20T09:42:51.012Z,38.40
2017-12-20T09:45:20.407Z,46.43
2017-12-20T09:47:49.811Z,44.87
2017-12-20T09:50:19.227Z,48.17
2017-12-20T09:52:48.618Z,34.80
2017-12-20T09:55:18.008Z,34.87
2017-12-20T09:57:47.416Z,37.47
2017-12-20T10:00:16.492Z,39.50
2017-12-20T10:02:45.896Z,36.67
2017-12-20T10:05:15.300Z,39.00
2017-12-20T10:07:44.712Z,33.37
2017-12-20T10:10:14.153Z,32.90
2017-12-20T10:12:43.728Z,39.47
2017-12-20T10:15:13.127Z,36.67
2017-12-20T10:17:42.520Z,44.10
2017-12-20T10:20:11.928Z,36.20
2017-12-20T10:22:41.320Z,33.23
2017-12-20T10:25:10.721Z,36.00
2017-12-20T10:27:40.131Z,38.80
2017-12-20T10:30:09.519Z,30.80
2017-12-20T10:32:38.905Z,28.10
2017-12-20T10:35:08.408Z,28.17
2017-12-20T10:37:37.791Z,27.97
2017-12-20T10:40:07.176Z,23.53
2017-12-20T10:42:36.593Z,25.13
2017-12-20T10:45:05.984Z,27.50
2017-12-20T10:47:35.372Z,21.67
2017-12-20T10:50:04.803Z,23.90
2017-12-20T10:52:34.205Z,24.90
2017-12-20T10:55:03.603Z,22.60
2017-12-20T10:57:33.017Z,20.20
2017-12-20T11:00:02.408Z,20.93
2017-12-20T11:02:31.791Z,19.03
2017-12-20T11:05:01.211Z,18.73
2017-12-20T11:07:30.591Z,15.37
2017-12-20T11:09:59.972Z,17.97
2017-12-20T11:12:29.395Z,15.20
2017-12-20T11:14:58.776Z,15.20
2017-12-20T11:17:27.918Z,19.80
2017-12-20T11:19:56.302Z,13.90
2017-12-20T11:22:24.005Z,13.20
2017-12-20T11:24:52.368Z,15.83
2017-12-20T11:27:20.782Z,14.93
2017-12-20T11:29:49.925Z,18.63
2017-12-20T11:32:17.620Z,17.70
2017-12-20T11:34:46.782Z,16.33
2017-12-20T11:37:15.147Z,13.43
2017-12-20T11:39:43.510Z,14.27
2017-12-20T11:42:11.914Z,14.30
2017-12-20T11:44:40.294Z,16.73
2017-12-20T11:47:08.670Z,15.83
2017-12-20T11:49:37.072Z,13.13
2017-12-20T11:52:05.430Z,15.30
2017-12-20T11:54:33.793Z,14.50
2017-12-20T11:57:02.185Z,14.77
2017-12-20T11:59:30.556Z,13.30
2017-12-20T12:01:58.256Z,11.53
2017-12-20T12:04:26.632Z,14.67
2017-12-20T12:06:55.012Z,12.27
2017-12-20T12:09:23.388Z,13.20
2017-12-20T12:11:51.911Z,12.50
2017-12-20T12:14:20.274Z,15.47
2017-12-20T12:16:49.408Z,12.67
2017-12-20T12:19:17.810Z,14.60
2017-12-20T12:21:46.227Z,12.90
2017-12-20T12:24:14.639Z,14.63
2017-12-20T12:26:42.710Z,14.10
2017-12-20T12:29:11.083Z,13.47
2017-12-20T12:31:39.443Z,16.40
2017-12-20T12:34:08.601Z,10.07
2017-12-20T12:36:37.000Z,16.83
2017-12-20T12:39:05.812Z,14.50
2017-12-20T12:41:34.195Z,11.63
2017-12-20T12:44:02.561Z,12.57
2017-12-20T12:46:31.443Z,10.07
2017-12-20T12:48:59.848Z,11.07
2017-12-20T12:51:28.232Z,12.90
2017-12-20T12:53:56.614Z,10.43
2017-12-20T12:56:25.092Z,11.83
2017-12-20T12:58:53.453Z,12.27
2017-12-20T13:01:21.808Z,12.27
2017-12-20T13:03:50.676Z,8.67
2017-12-20T13:06:19.058Z,15.10
2017-12-20T13:08:47.424Z,14.13
2017-12-20T13:11:15.821Z,14.40
2017-12-20T13:13:44.192Z,20.00
2017-12-20T13:16:12.561Z,11.20
2017-12-20T13:18:40.945Z,13.83
2017-12-20T13:21:08.976Z,9.87
2017-12-20T13:23:37.344Z,10.33
2017-12-20T13:26:05.721Z,9.03
2017-12-20T13:28:34.079Z,8.87
2017-12-20T13:31:03.211Z,10.00
2017-12-20T13:33:31.783Z,10.40
2017-12-20T13:36:00.208Z,6.80
2017-12-20T13:38:29.460Z,7.77
2017-12-20T13:40:57.992Z,7.50
2017-12-20T13:43:26.355Z,7.57
2017-12-20T13:45:55.153Z,9.70
2017-12-20T13:48:23.213Z,9.73
2017-12-20T13:50:51.248Z,7.60
2017-12-20T13:53:19.609Z,7.73
2017-12-20T13:55:48.005Z,9.70
2017-12-20T13:58:16.387Z,7.77
2017-12-20T14:00:44.111Z,10.37
2017-12-20T14:03:13.285Z,9.57
2017-12-20T14:05:41.664Z,11.93
2017-12-20T14:08:10.801Z,10.00
2017-12-20T14:10:39.206Z,10.40
2017-12-20T14:13:07.609Z,10.40
2017-12-20T14:15:35.969Z,11.53
2017-12-20T14:18:04.255Z,9.70
2017-12-20T14:20:32.613Z,10.03
2017-12-20T14:23:00.979Z,12.00
2017-12-20T14:25:29.396Z,8.50
2017-12-20T14:27:57.761Z,10.30
2017-12-20T14:30:26.125Z,10.83
2017-12-20T14:32:54.508Z,11.27
2017-12-20T14:35:22.897Z,12.03
2017-12-20T14:37:51.252Z,10.30
2017-12-20T14:40:19.662Z,10.27
2017-12-20T14:42:48.026Z,9.33
2017-12-20T14:45:16.395Z,10.77
2017-12-20T14:47:44.806Z,9.60
2017-12-20T14:50:13.204Z,11.03
2017-12-20T14:52:41.732Z,6.70
2017-12-20T14:55:09.809Z,8.90
2017-12-20T14:57:37.525Z,10.80
2017-12-20T15:00:06.722Z,9.90
2017-12-20T15:02:35.541Z,11.07
2017-12-20T15:05:03.576Z,10.23
2017-12-20T15:07:32.385Z,8.40
2017-12-20T15:10:00.766Z,8.90
2017-12-20T15:12:29.125Z,10.20
2017-12-20T15:14:57.924Z,9.40
2017-12-20T15:17:26.333Z,17.03
2017-12-20T15:19:54.692Z,21.57
2017-12-20T15:22:23.065Z,27.27
2017-12-20T15:24:51.657Z,10.97
2017-12-20T15:27:20.052Z,15.60
2017-12-20T15:29:48.431Z,15.10
2017-12-20T15:32:16.173Z,13.90
2017-12-20T15:34:43.885Z,11.87
2017-12-20T15:37:12.257Z,12.37
2017-12-20T15:39:40.669Z,12.43
2017-12-20T15:42:09.144Z,10.83
2017-12-20T15:44:37.940Z,10.30
2017-12-20T15:47:07.077Z,10.90
2017-12-20T15:49:35.445Z,10.60
2017-12-20T15:52:04.360Z,11.17
2017-12-20T15:54:32.769Z,8.60
2017-12-20T15:57:01.321Z,11.00
2017-12-20T15:59:29.690Z,7.43
2017-12-20T16:01:58.094Z,8.67
2017-12-20T16:04:26.448Z,10.03
2017-12-20T16:06:54.801Z,11.30
2017-12-20T16:09:23.282Z,10.17
2017-12-20T16:11:51.641Z,10.67
2017-12-20T16:14:20.436Z,8.50
2017-12-20T16:16:48.817Z,9.93
2017-12-20T16:19:17.175Z,7.70
2017-12-20T16:21:46.327Z,10.20
2017-12-20T16:24:15.484Z,7.60
2017-12-20T16:26:43.843Z,9.13
2017-12-20T16:29:13.076Z,8.83
2017-12-20T16:31:41.476Z,11.23
2017-12-20T16:34:09.844Z,10.43
2017-12-20T16:36:38.201Z,9.83
2017-12-20T16:39:06.575Z,8.40
2017-12-20T16:41:34.941Z,9.77
2017-12-20T16:44:04.070Z,10.03
2017-12-20T16:46:32.464Z,20.53
2017-12-20T16:49:00.503Z,15.03
2017-12-20T16:51:28.862Z,12.27
2017-12-20T16:53:58.112Z,10.50
2017-12-20T16:56:26.501Z,9.03
2017-12-20T16:58:55.151Z,7.30
2017-12-20T17:01:23.550Z,9.53
2017-12-20T17:03:51.584Z,8.80
2017-12-20T17:06:19.613Z,7.87
2017-12-20T17:08:48.008Z,10.70
2017-12-20T17:11:16.484Z,5.63
2017-12-20T17:13:44.844Z,7.43
2017-12-20T17:16:13.255Z,7.83
2017-12-20T17:18:42.388Z,7.63
2017-12-20T17:21:10.750Z,6.47
2017-12-20T17:23:40.084Z,8.00
2017-12-20T17:26:08.441Z,8.17
2017-12-20T17:28:36.791Z,8.53
2017-12-20T17:31:05.220Z,9.97
2017-12-20T17:33:33.583Z,7.80
2017-12-20T17:36:02.051Z,6.50
2017-12-20T17:38:30.421Z,6.40
2017-12-20T17:40:58.780Z,8.07
2017-12-20T17:43:27.916Z,7.90
2017-12-20T17:45:56.305Z,7.90
2017-12-20T17:48:24.696Z,6.13
2017-12-20T17:50:52.721Z,6.97
2017-12-20T17:53:21.129Z,6.57
2017-12-20T17:55:49.485Z,5.07
2017-12-20T17:58:17.849Z,5.30
2017-12-20T18:00:45.592Z,5.30
2017-12-20T18:03:14.740Z,6.57
2017-12-20T18:05:43.204Z,6.00
2017-12-20T18:08:11.608Z,5.93
2017-12-20T18:10:39.985Z,6.60
2017-12-20T18:13:10.460Z,8.97
2017-12-20T18:15:39.616Z,5.80
2017-12-20T18:18:07.649Z,7.47
2017-12-20T18:20:36.782Z,11.87
2017-12-20T18:23:04.829Z,7.33
2017-12-20T18:25:33.184Z,9.30
2017-12-20T18:28:01.675Z,11.37
2017-12-20T18:30:30.121Z,8.63
2017-12-20T18:32:59.320Z,10.67
2017-12-20T18:35:28.462Z,7.57
2017-12-20T18:37:56.877Z,7.10
2017-12-20T18:40:29.395Z,7.40
2017-12-20T18:42:57.807Z,9.27
2017-12-20T18:45:26.234Z,7.47
2017-12-20T18:47:55.395Z,8.40
2017-12-20T18:50:23.816Z,8.70
2017-12-20T18:52:53.033Z,5.73
2017-12-20T18:55:21.389Z,6.13
2017-12-20T18:57:50.640Z,6.67
2017-12-20T19:00:18.406Z,7.80
2017-12-20T19:02:46.104Z,9.60
2017-12-20T19:05:15.313Z,8.13
2017-12-20T19:07:43.684Z,8.53
2017-12-20T19:10:12.073Z,12.70
2017-12-20T19:12:40.814Z,17.83
2017-12-20T19:15:09.187Z,8.83
2017-12-20T19:17:37.702Z,12.57
2017-12-20T19:20:07.093Z,13.23
2017-12-20T19:22:36.224Z,11.90
2017-12-20T19:25:04.270Z,9.53
2017-12-20T19:27:33.723Z,13.10
2017-12-20T19:30:02.095Z,7.47
2017-12-20T19:32:30.462Z,11.20
2017-12-20T19:34:58.858Z,11.10
2017-12-20T19:37:27.222Z,11.60
2017-12-20T19:39:55.614Z,13.47
2017-12-20T19:42:24.017Z,12.17
2017-12-20T19:44:52.382Z,9.37
2017-12-20T19:47:20.742Z,6.77
2017-12-20T19:49:49.140Z,8.40
2017-12-20T19:52:17.500Z,8.97
2017-12-20T19:54:45.864Z,9.07
2017-12-20T19:57:14.238Z,8.33
2017-12-20T19:59:42.623Z,8.40
2017-12-20T20:02:10.704Z,9.27
2017-12-20T20:04:39.149Z,8.03
2017-12-20T20:07:08.314Z,8.10
2017-12-20T20:09:36.713Z,8.27
2017-12-20T20:12:06.076Z,8.50
2017-12-20T20:14:34.480Z,12.20
2017-12-20T20:17:04.353Z,8.00
2017-12-20T20:19:32.913Z,9.60
2017-12-20T20:22:01.281Z,8.40
2017-12-20T20:24:30.397Z,11.40
2017-12-20T20:26:58.788Z,7.47
2017-12-20T20:29:27.156Z,8.30
2017-12-20T20:31:55.516Z,11.10
2017-12-20T20:34:23.932Z,9.93
2017-12-20T20:36:52.296Z,11.53
2017-12-20T20:39:20.688Z,10.90
2017-12-20T20:41:49.085Z,11.33
2017-12-20T20:44:17.452Z,8.87
2017-12-20T20:46:45.804Z,8.23
2017-12-20T20:49:14.240Z,6.60
2017-12-20T20:51:43.377Z,8.37
2017-12-20T20:54:11.761Z,6.73
2017-12-20T20:56:40.161Z,5.70
2017-12-20T20:59:08.529Z,6.10
2017-12-20T21:01:37.263Z,5.57
2017-12-20T21:04:06.057Z,5.77
2017-12-20T21:06:35.486Z,7.93
2017-12-20T21:09:03.469Z,5.60
2017-12-20T21:11:31.895Z,5.13
2017-12-20T21:14:01.028Z,8.87
2017-12-20T21:16:29.388Z,5.50
2017-12-20T21:18:57.945Z,7.70
2017-12-20T21:21:27.961Z,5.03
2017-12-20T21:23:57.872Z,4.90
2017-12-20T21:26:27.033Z,6.27
2017-12-20T21:28:56.115Z,7.10
2017-12-20T21:31:24.533Z,6.30
2017-12-20T21:33:53.677Z,6.50
2017-12-20T21:36:22.034Z,5.20
2017-12-20T21:38:51.192Z,5.00
2017-12-20T21:41:19.558Z,6.10
2017-12-20T21:43:47.920Z,5.90
2017-12-20T21:46:16.472Z,9.33
2017-12-20T21:48:45.589Z,5.67
2017-12-20T21:51:14.073Z,5.83
2017-12-20T21:53:42.148Z,5.37
2017-12-20T21:56:10.506Z,5.27
2017-12-20T21:58:38.922Z,6.93
2017-12-20T22:01:06.977Z,5.53
2017-12-20T22:03:35.339Z,3.93
2017-12-20T22:06:03.733Z,4.93
2017-12-20T22:08:32.128Z,5.10
2017-12-20T22:10:59.890Z,4.97
2017-12-20T22:13:28.850Z,4.80
2017-12-20T22:15:58.060Z,6.00
2017-12-20T22:18:26.462Z,5.77
2017-12-20T22:20:54.825Z,4.13
2017-12-20T22:23:23.222Z,4.27
2017-12-20T22:25:51.589Z,5.23
2017-12-20T22:28:19.977Z,5.83
2017-12-20T22:30:48.381Z,4.43
2017-12-20T22:33:17.500Z,6.03
2017-12-20T22:35:46.697Z,5.40
2017-12-20T22:38:15.849Z,5.03
2017-12-20T22:40:44.220Z,3.97
2017-12-20T22:43:12.585Z,5.03
2017-12-20T22:45:40.335Z,6.33
2017-12-20T22:48:08.710Z,3.67
2017-12-20T22:50:37.073Z,3.80
2017-12-20T22:53:05.472Z,5.10
2017-12-20T22:55:33.836Z,4.10
2017-12-20T22:58:02.229Z,4.90
2017-12-20T23:00:33.436Z,4.10
2017-12-20T23:03:01.882Z,4.13
2017-12-20T23:05:30.261Z,6.17
2017-12-20T23:07:58.647Z,6.80
2017-12-20T23:10:27.010Z,5.67
2017-12-20T23:12:55.372Z,4.90
2017-12-20T23:15:23.749Z,5.10
2017-12-20T23:17:52.226Z,5.30
2017-12-20T23:20:20.703Z,5.33
2017-12-20T23:22:49.285Z,3.80
2017-12-20T23:25:17.672Z,5.83
2017-12-20T23:27:46.144Z,6.30
2017-12-20T23:30:14.630Z,5.23
2017-12-20T23:32:42.992Z,6.90
2017-12-20T23:35:11.184Z,5.20
2017-12-20T23:37:39.576Z,4.20
2017-12-20T23:40:07.977Z,6.30
2017-12-20T23:42:36.329Z,3.60
2017-12-20T23:45:04.702Z,4.30
2017-12-20T23:47:33.061Z,4.90
2017-12-20T23:50:01.445Z,4.80
2017-12-20T23:52:29.990Z,3.00
2017-12-20T23:54:59.132Z,4.73
2017-12-20T23:57:27.510Z,3.57
2017-12-20T23:59:55.869Z,3.67
